Time;durP1;ratioP1;P1;durP2;ratioP2;P2;SDS_P1;SDS_P2;PMS_P1;PMS_P2;Temp;Humidity;BMP_temperature;BMP_pressure;BME280_temperature;BME280_humidity;BME280_pressure;Samples;Min_cycle;Max_cycle;Signal;HPM_P1;HPM_P2
2024/01/14 00:01:39;;;;;;;26.48;2.45;;;;;;;5.46;100.00;100989.59;10307078;28;20054;-64
2024/01/14 00:07:00;;;;;;;17.25;2.15;;;;;;;5.42;100.00;100995.63;10309931;28;20149;-63
2024/01/14 00:12:22;;;;;;;19.52;2.30;;;;;;;5.39;100.00;101028.97;10306939;28;20514;-63
2024/01/14 00:17:44;;;;;;;11.27;1.55;;;;;;;5.18;100.00;101013.72;10301727;28;20054;-63
2024/01/14 00:23:05;;;;;;;7.05;1.38;;;;;;;5.09;100.00;101023.16;10302689;28;20941;-62
2024/01/14 00:28:27;;;;;;;6.45;1.38;;;;;;;4.96;100.00;101028.34;10315695;28;20458;-63
2024/01/14 00:33:50;;;;;;;5.38;1.00;;;;;;;4.72;100.00;101013.91;10304079;28;20470;-64
2024/01/14 00:39:12;;;;;;;4.13;1.02;;;;;;;4.68;100.00;101007.09;10299070;28;20114;-63
2024/01/14 00:44:34;;;;;;;4.97;0.80;;;;;;;4.64;100.00;100995.16;10302821;28;20055;-63
2024/01/14 00:49:57;;;;;;;5.25;1.10;;;;;;;4.66;100.00;100996.00;10317174;28;20112;-63
2024/01/14 00:55:19;;;;;;;11.55;1.30;;;;;;;4.72;100.00;100988.28;10306407;28;20114;-63
2024/01/14 01:00:41;;;;;;;9.18;1.70;;;;;;;4.80;100.00;101006.19;10299962;28;20133;-64
2024/01/14 01:06:02;;;;;;;16.73;2.35;;;;;;;4.86;100.00;100994.22;10317387;28;20072;-64
2024/01/14 01:11:24;;;;;;;16.55;1.67;;;;;;;4.91;100.00;100983.91;10300842;28;20203;-63
2024/01/14 01:16:46;;;;;;;17.23;1.88;;;;;;;4.93;100.00;100964.25;10304440;28;20064;-63
2024/01/14 01:22:07;;;;;;;13.80;1.65;;;;;;;4.95;100.00;100965.97;10301931;28;20057;-63
2024/01/14 01:27:29;;;;;;;14.98;1.83;;;;;;;4.96;100.00;100962.53;10307546;28;20051;-64
2024/01/14 01:32:51;;;;;;;8.85;1.50;;;;;;;4.92;100.00;100955.72;10306070;28;20058;-64
2024/01/14 01:38:13;;;;;;;11.27;1.60;;;;;;;4.94;100.00;100960.84;10305582;28;20046;-64
2024/01/14 01:43:35;;;;;;;12.35;1.25;;;;;;;4.89;100.00;100949.75;10319961;28;20506;-64
2024/01/14 01:48:57;;;;;;;8.70;1.48;;;;;;;4.84;100.00;100947.22;10309131;28;20042;-64
2024/01/14 01:54:22;;;;;;;13.75;1.75;;;;;;;4.85;100.00;100948.09;10306495;28;20068;-64
2024/01/14 01:59:45;;;;;;;11.15;1.55;;;;;;;4.80;100.00;100948.09;10304985;28;20050;-64
2024/01/14 02:05:08;;;;;;;7.93;1.67;;;;;;;4.77;100.00;100945.56;10303291;28;20137;-64
2024/01/14 02:10:29;;;;;;;13.68;1.60;;;;;;;4.73;100.00;100948.97;10309276;28;20046;-64
2024/01/14 02:15:51;;;;;;;10.00;1.40;;;;;;;4.63;100.00;100931.94;10305456;28;20137;-65
2024/01/14 02:21:19;;;;;;;10.32;1.80;;;;;;;4.61;100.00;100926.00;10291809;28;20326;-65
2024/01/14 02:26:40;;;;;;;12.43;1.75;;;;;;;4.62;100.00;100935.34;10306225;28;20053;-65
2024/01/14 02:32:02;;;;;;;15.35;1.50;;;;;;;4.61;100.00;100931.13;10312451;28;20057;-64
2024/01/14 02:37:24;;;;;;;16.75;1.60;;;;;;;4.62;100.00;100922.56;10307211;28;20383;-65
2024/01/14 02:42:45;;;;;;;14.43;1.45;;;;;;;4.62;100.00;100930.25;10317355;28;20144;-65
2024/01/14 02:48:07;;;;;;;17.10;1.77;;;;;;;4.59;100.00;100912.31;10306318;28;20047;-63
2024/01/14 02:53:29;;;;;;;20.77;2.00;;;;;;;4.61;100.00;100905.50;10305374;28;20050;-64
2024/01/14 02:58:50;;;;;;;10.40;1.67;;;;;;;4.62;100.00;100899.50;10306647;28;20042;-63
2024/01/14 03:04:12;;;;;;;14.63;1.95;;;;;;;4.59;100.00;100904.63;10310054;28;20145;-64
2024/01/14 03:09:34;;;;;;;22.00;2.03;;;;;;;4.63;100.00;100916.56;10291813;28;20555;-64
2024/01/14 03:14:55;;;;;;;19.58;1.52;;;;;;;4.62;100.00;100904.63;10304411;28;20058;-64
2024/01/14 03:20:17;;;;;;;15.30;2.03;;;;;;;4.59;100.00;100903.78;10317408;28;20042;-63
2024/01/14 03:25:39;;;;;;;21.27;2.08;;;;;;;4.59;100.00;100904.63;10304481;28;20126;-65
2024/01/14 03:31:00;;;;;;;15.02;1.70;;;;;;;4.54;100.00;100910.66;10302638;28;20049;-65
2024/01/14 03:36:22;;;;;;;18.10;2.00;;;;;;;4.52;100.00;100913.22;10300223;28;20145;-65
2024/01/14 03:41:44;;;;;;;16.63;2.05;;;;;;;4.48;100.00;100914.09;10308788;28;20058;-65
2024/01/14 03:47:06;;;;;;;11.85;1.98;;;;;;;4.49;100.00;100913.22;10314189;28;20152;-65
2024/01/14 03:52:28;;;;;;;13.13;1.88;;;;;;;4.49;100.00;100905.53;10312285;28;20077;-65
2024/01/14 03:57:49;;;;;;;15.30;2.28;;;;;;;4.48;100.00;100915.78;10311905;28;20443;-65
2024/01/14 04:03:11;;;;;;;23.73;2.42;;;;;;;4.45;100.00;100915.81;10320982;28;20170;-65
2024/01/14 04:08:33;;;;;;;22.85;2.78;;;;;;;4.37;100.00;100913.28;10310883;28;20053;-65
2024/01/14 04:13:54;;;;;;;18.88;2.28;;;;;;;4.42;100.00;100921.78;10312829;28;20050;-65
2024/01/14 04:19:16;;;;;;;19.77;2.40;;;;;;;4.40;100.00;100918.38;10332485;28;20045;-64
2024/01/14 04:24:38;;;;;;;11.52;1.70;;;;;;;4.40;100.00;100902.13;10309201;28;20081;-64
2024/01/14 04:30:00;;;;;;;18.92;2.35;;;;;;;4.42;100.00;100903.00;10306376;28;20802;-65
2024/01/14 04:35:22;;;;;;;15.30;1.95;;;;;;;4.40;100.00;100897.88;10314413;28;20132;-64
2024/01/14 04:40:44;;;;;;;15.18;1.83;;;;;;;4.43;100.00;100885.03;10312351;28;20137;-65
2024/01/14 04:46:10;;;;;;;21.42;2.15;;;;;;;4.43;100.00;100885.03;10312541;28;20573;-65
2024/01/14 04:51:32;;;;;;;16.90;2.50;;;;;;;4.40;100.00;100885.06;10313883;28;20146;-64
2024/01/14 04:56:54;;;;;;;17.20;2.30;;;;;;;4.39;100.00;100885.94;10305491;28;21283;-64
2024/01/14 05:02:15;;;;;;;13.88;1.63;;;;;;;4.36;100.00;100883.38;10316584;28;20078;-64
2024/01/14 05:07:37;;;;;;;16.95;2.42;;;;;;;4.30;100.00;100880.88;10312501;28;20053;-64
2024/01/14 05:12:59;;;;;;;24.60;2.22;;;;;;;4.20;100.00;100868.06;10309871;28;20140;-65
2024/01/14 05:18:21;;;;;;;23.67;3.00;;;;;;;4.16;100.00;100857.00;10313053;28;20085;-65
2024/01/14 05:23:43;;;;;;;16.02;2.35;;;;;;;4.06;100.00;100856.16;10321793;28;20495;-64
2024/01/14 05:29:05;;;;;;;15.52;2.35;;;;;;;4.05;100.00;100858.75;10302724;28;20519;-64
2024/01/14 05:34:26;;;;;;;20.90;2.53;;;;;;;3.93;100.00;100841.75;10312045;28;20057;-65
2024/01/14 05:39:48;;;;;;;31.45;3.10;;;;;;;3.94;100.00;100834.88;10303093;28;20497;-65
2024/01/14 05:45:12;;;;;;;17.00;2.33;;;;;;;3.95;100.00;100839.16;10305163;28;20506;-65
2024/01/14 05:50:34;;;;;;;16.13;2.55;;;;;;;3.95;100.00;100847.69;10307691;28;20146;-65
2024/01/14 05:55:57;;;;;;;17.58;1.85;;;;;;;3.99;100.00;100835.75;10302824;28;20499;-64
2024/01/14 06:01:19;;;;;;;11.45;1.80;;;;;;;3.96;100.00;100822.94;10302450;28;20043;-64
2024/01/14 06:06:41;;;;;;;17.63;2.25;;;;;;;3.94;100.00;100825.50;10305615;28;20062;-64
2024/01/14 06:12:03;;;;;;;19.00;2.17;;;;;;;3.89;100.00;100822.13;10323777;28;20042;-63
2024/01/14 06:17:25;;;;;;;21.00;2.83;;;;;;;3.82;100.00;100820.44;10305276;28;20503;-64
2024/01/14 06:22:47;;;;;;;17.05;2.25;;;;;;;3.76;100.00;100814.47;10306548;28;20076;-64
2024/01/14 06:28:08;;;;;;;22.40;2.40;;;;;;;3.67;100.00;100825.59;10304720;28;20536;-64
2024/01/14 06:33:30;;;;;;;14.10;2.20;;;;;;;3.67;100.00;100819.63;10305220;28;20050;-65
2024/01/14 06:38:52;;;;;;;22.85;2.90;;;;;;;3.67;100.00;100812.81;10318744;28;20056;-64
2024/01/14 06:44:14;;;;;;;18.65;2.60;;;;;;;3.66;100.00;100812.81;10306281;28;20054;-64
2024/01/14 06:49:36;;;;;;;28.10;3.08;;;;;;;3.66;100.00;100798.28;10304225;28;20050;-65
2024/01/14 06:54:57;;;;;;;17.60;2.20;;;;;;;3.66;100.00;100797.47;10302620;28;20471;-65
2024/01/14 07:00:19;;;;;;;21.30;2.58;;;;;;;3.66;100.00;100794.91;10301406;28;20052;-65
2024/01/14 07:05:41;;;;;;;22.83;2.70;;;;;;;3.61;100.00;100794.91;10303566;28;20062;-64
2024/01/14 07:11:05;;;;;;;14.13;2.15;;;;;;;3.57;100.00;100793.19;10313692;28;20046;-65
2024/01/14 07:16:27;;;;;;;18.77;2.60;;;;;;;3.58;100.00;100787.25;10307118;28;20046;-65
2024/01/14 07:21:50;;;;;;;16.50;2.40;;;;;;;3.59;100.00;100790.66;10322284;28;20046;-64
2024/01/14 07:27:15;;;;;;;15.40;2.22;;;;;;;3.58;100.00;100783.81;10307353;28;20054;-64
2024/01/14 07:32:37;;;;;;;21.83;2.42;;;;;;;3.65;100.00;100780.41;10313458;28;20069;-64
2024/01/14 07:37:58;;;;;;;18.17;2.00;;;;;;;3.68;100.00;100780.41;10303334;28;20050;-64
2024/01/14 07:43:20;;;;;;;15.88;2.50;;;;;;;3.71;100.00;100778.69;10298009;28;20062;-65
2024/01/14 07:48:42;;;;;;;13.65;2.08;;;;;;;3.70;100.00;100786.38;10301684;28;20046;-65
2024/01/14 07:54:04;;;;;;;14.15;2.25;;;;;;;3.69;100.00;100787.22;10308841;28;20144;-65
2024/01/14 07:59:26;;;;;;;18.88;2.17;;;;;;;3.64;100.00;100783.81;10307461;28;20058;-65
2024/01/14 08:04:49;;;;;;;18.80;2.28;;;;;;;3.67;100.00;100781.25;10306498;28;20053;-65
2024/01/14 08:10:11;;;;;;;15.82;2.38;;;;;;;3.57;100.00;100782.13;10310063;28;20097;-65
2024/01/14 08:15:33;;;;;;;19.92;2.13;;;;;;;3.53;100.00;100780.44;10310097;28;20062;-65
2024/01/14 08:21:09;;;;;;;18.45;2.97;;;;;;;3.45;100.00;100775.34;10300006;28;20058;-65
2024/01/14 08:26:31;;;;;;;15.15;2.30;;;;;;;3.45;100.00;100767.66;10309202;28;20081;-65
2024/01/14 08:31:53;;;;;;;15.45;2.60;;;;;;;3.46;100.00;100776.19;10310774;28;20076;-64
2024/01/14 08:37:15;;;;;;;18.17;2.55;;;;;;;3.46;100.00;100774.47;10311166;28;20141;-64
2024/01/14 08:42:37;;;;;;;18.08;2.88;;;;;;;3.51;100.00;100777.88;10308443;28;20061;-65
2024/01/14 08:47:59;;;;;;;20.55;2.45;;;;;;;3.45;100.00;100766.81;10307465;28;20047;-65
2024/01/14 08:53:21;;;;;;;11.90;2.13;;;;;;;3.55;100.00;100766.78;10316064;28;20057;-65
2024/01/14 08:58:42;;;;;;;13.20;2.65;;;;;;;3.62;100.00;100760.81;10311000;28;20074;-65
2024/01/14 09:04:04;;;;;;;22.17;2.45;;;;;;;3.67;100.00;100763.34;10311530;28;20149;-65
2024/01/14 09:09:26;;;;;;;20.05;2.97;;;;;;;3.74;100.00;100755.63;10298916;28;20038;-65
2024/01/14 09:14:48;;;;;;;15.40;4.13;;;;;;;3.78;100.00;100756.47;10307360;28;20050;-65
2024/01/14 09:20:10;;;;;;;13.95;2.17;;;;;;;3.80;100.00;100749.66;10310769;28;20054;-65
2024/01/14 09:25:32;;;;;;;14.05;2.85;;;;;;;3.86;100.00;100744.50;10313563;28;20046;-65
2024/01/14 09:30:53;;;;;;;18.65;3.00;;;;;;;3.92;100.00;100745.31;10324765;28;20051;-65
2024/01/14 09:36:18;;;;;;;17.70;3.10;;;;;;;3.98;100.00;100744.44;10308992;28;20058;-66
2024/01/14 09:42:19;;;;;;;20.40;3.37;;;;;;;4.06;100.00;100735.03;10326450;28;20042;-66
2024/01/14 09:47:42;;;;;;;21.15;5.75;;;;;;;4.03;100.00;100732.47;10246098;28;20479;-66
2024/01/14 09:53:09;;;;;;;24.48;2.55;;;;;;;4.09;100.00;100738.41;10297971;28;20411;-66
2024/01/14 09:58:31;;;;;;;20.02;2.63;;;;;;;4.14;100.00;100730.69;10307656;28;20066;-66
2024/01/14 10:03:53;;;;;;;26.65;6.70;;;;;;;4.19;100.00;100718.75;10310448;28;20169;-66
2024/01/14 10:09:15;;;;;;;22.83;3.33;;;;;;;4.31;100.00;100718.66;10323923;28;20081;-65
2024/01/14 10:14:37;;;;;;;16.25;3.05;;;;;;;4.47;100.00;100710.00;10308827;28;20402;-65
2024/01/14 10:19:59;;;;;;;13.65;3.42;;;;;;;4.52;100.00;100703.16;10310567;28;20411;-65
2024/01/14 10:25:21;;;;;;;12.75;3.05;;;;;;;4.57;100.00;100701.41;10307297;28;20113;-65
2024/01/14 10:30:43;;;;;;;14.50;2.53;;;;;;;4.58;100.00;100677.47;10313540;28;20052;-66
2024/01/14 10:36:08;;;;;;;28.23;6.53;;;;;;;4.64;100.00;100676.56;10300523;28;20058;-66
2024/01/14 10:41:30;;;;;;;10.27;1.77;;;;;;;4.69;100.00;100665.41;10303910;28;20060;-67
2024/01/14 10:46:53;;;;;;;17.75;2.28;;;;;;;4.72;100.00;100660.28;10319192;28;20487;-66
2024/01/14 10:52:17;;;;;;;15.52;3.80;;;;;;;4.75;100.00;100654.25;10304256;28;20134;-66
2024/01/14 10:57:42;;;;;;;14.68;2.22;;;;;;;4.81;100.00;100652.50;10301573;28;20056;-67
2024/01/14 11:03:05;;;;;;;20.20;4.75;;;;;;;4.77;100.00;100634.59;10306870;28;20069;-66
2024/01/14 11:08:28;;;;;;;29.27;6.95;;;;;;;4.74;100.00;100614.13;10305255;28;20128;-67
2024/01/14 11:14:02;;;;;;;15.55;3.55;;;;;;;4.77;100.00;100602.13;10311643;28;20065;-66
2024/01/14 11:19:29;;;;;;;15.77;2.90;;;;;;;4.84;100.00;100595.22;10303332;28;20047;-67
2024/01/14 11:24:59;;;;;;;16.40;3.20;;;;;;;4.89;100.00;100591.75;10305336;28;20058;-66
2024/01/14 11:30:46;;;;;;;12.43;2.05;;;;;;;4.92;100.00;100586.59;10311505;28;20065;-67
2024/01/14 11:36:10;;;;;;;14.05;1.73;;;;;;;5.03;100.00;100584.75;10301601;28;20064;-67
2024/01/14 11:41:35;;;;;;;16.88;2.40;;;;;;;5.09;100.00;100578.72;10303012;28;20046;-67
2024/01/14 11:46:56;;;;;;;14.75;2.33;;;;;;;5.18;100.00;100559.78;10305446;28;20060;-67
2024/01/14 11:52:19;;;;;;;12.05;1.88;;;;;;;5.26;100.00;100538.31;10301619;28;20042;-67
2024/01/14 11:57:41;;;;;;;15.60;2.22;;;;;;;5.31;100.00;100525.44;10287751;28;20073;-67
2024/01/14 12:03:14;;;;;;;12.23;1.92;;;;;;;5.40;100.00;100518.47;10302240;28;20054;-67
2024/01/14 12:08:36;;;;;;;15.52;2.03;;;;;;;5.44;100.00;100499.56;10307337;28;20053;-67
2024/01/14 12:13:58;;;;;;;11.75;2.13;;;;;;;5.46;100.00;100476.44;10312078;28;20415;-67
2024/01/14 12:19:19;;;;;;;17.20;2.22;;;;;;;5.51;100.00;100479.81;10310442;28;20057;-67
2024/01/14 12:24:41;;;;;;;14.35;2.30;;;;;;;5.51;100.00;100466.97;10309318;28;20057;-67
2024/01/14 12:30:04;;;;;;;11.85;1.88;;;;;;;5.47;100.00;100457.63;10302686;28;20188;-67
2024/01/14 12:35:34;;;;;;;13.18;2.25;;;;;;;5.41;100.00;100440.63;10318755;28;20057;-67
2024/01/14 12:40:55;;;;;;;11.43;2.60;;;;;;;5.38;100.00;100425.28;10291128;28;20054;-66
2024/01/14 12:46:18;;;;;;;11.25;3.70;;;;;;;5.36;100.00;100419.31;10295596;28;20065;-66
2024/01/14 12:51:40;;;;;;;7.43;1.80;;;;;;;5.38;100.00;100411.59;10299332;28;20043;-66
2024/01/14 12:57:04;;;;;;;11.50;1.58;;;;;;;5.43;100.00;100412.38;10299225;28;20496;-66
2024/01/14 13:02:40;;;;;;;8.32;1.80;;;;;;;5.40;100.00;100395.31;10299995;28;20057;-66
2024/01/14 13:08:05;;;;;;;12.18;2.72;;;;;;;5.36;100.00;100380.00;10291029;28;20058;-65
2024/01/14 13:13:30;;;;;;;13.70;2.35;;;;;;;5.33;100.00;100387.75;10298498;28;20058;-66
2024/01/14 13:18:52;;;;;;;8.50;2.50;;;;;;;5.28;100.00;100369.00;10307217;28;20053;-66
2024/01/14 13:24:13;;;;;;;12.30;1.85;;;;;;;5.24;100.00;100363.06;10308886;28;20066;-66
2024/01/14 13:29:35;;;;;;;8.85;1.70;;;;;;;5.19;100.00;100343.50;10303831;28;20590;-66
2024/01/14 13:34:57;;;;;;;11.38;2.60;;;;;;;5.17;100.00;100337.56;10291561;28;20046;-66
2024/01/14 13:40:19;;;;;;;8.48;2.10;;;;;;;5.17;100.00;100324.72;10304513;28;20051;-66
2024/01/14 13:45:40;;;;;;;7.88;1.33;;;;;;;5.19;100.00;100318.72;10304536;28;20058;-65
2024/01/14 13:51:02;;;;;;;8.77;1.73;;;;;;;5.28;100.00;100299.75;10313596;28;20074;-65
2024/01/14 13:56:24;;;;;;;16.42;6.07;;;;;;;5.30;100.00;100285.19;10313220;28;20054;-66
2024/01/14 14:01:48;;;;;;;26.30;10.85;;;;;;;5.24;100.00;100286.13;10297191;28;20081;-65
2024/01/14 14:07:10;;;;;;;27.52;11.65;;;;;;;5.25;100.00;100292.13;10306936;28;20161;-66
2024/01/14 14:12:32;;;;;;;10.15;2.72;;;;;;;5.15;100.00;100295.72;10297738;28;20055;-65
2024/01/14 14:17:53;;;;;;;14.85;2.88;;;;;;;4.75;100.00;100278.41;10303937;28;20055;-65
2024/01/14 14:23:23;;;;;;;6.82;3.05;;;;;;;4.56;100.00;100294.91;10306889;28;20058;-66
2024/01/14 14:28:45;;;;;;;19.23;7.75;;;;;;;4.45;100.00;100273.72;10298400;28;20082;-66
2024/01/14 14:34:07;;;;;;;10.95;2.65;;;;;;;4.44;100.00;100272.06;10297798;28;20058;-65
2024/01/14 14:39:28;;;;;;;4.15;1.17;;;;;;;4.08;100.00;100272.56;10286447;28;20046;-65
2024/01/14 14:44:50;;;;;;;10.35;2.10;;;;;;;4.01;100.00;100279.44;10301407;28;20148;-65
2024/01/14 14:50:12;;;;;;;3.08;1.33;;;;;;;4.09;100.00;100272.53;10294695;28;20051;-65
2024/01/14 14:55:36;;;;;;;2.97;1.17;;;;;;;3.94;100.00;100265.03;10287861;28;20054;-65
2024/01/14 15:00:58;;;;;;;2.35;0.95;;;;;;;3.80;100.00;100269.50;10305992;28;20054;-65
2024/01/14 15:06:20;;;;;;;5.10;1.00;;;;;;;3.68;100.00;100248.34;10305864;28;20055;-65
2024/01/14 15:11:42;;;;;;;7.53;3.35;;;;;;;3.64;100.00;100244.09;10307893;28;20078;-65
2024/01/14 15:17:06;;;;;;;5.07;1.48;;;;;;;3.58;100.00;100233.94;10288964;28;20057;-66
2024/01/14 15:22:27;;;;;;;2.15;1.10;;;;;;;3.61;100.00;100214.28;10291100;28;20069;-65
2024/01/14 15:27:49;;;;;;;5.72;1.77;;;;;;;3.63;100.00;100211.69;10309048;28;20554;-65
2024/01/14 15:33:11;;;;;;;6.07;1.60;;;;;;;3.65;100.00;100203.16;10298188;28;20048;-65
2024/01/14 15:38:33;;;;;;;6.78;1.40;;;;;;;3.70;100.00;100196.25;10305797;28;20144;-65
2024/01/14 15:43:55;;;;;;;12.35;4.60;;;;;;;3.71;100.00;100197.13;10308632;28;20142;-65
2024/01/14 15:49:16;;;;;;;21.65;8.63;;;;;;;3.73;100.00;100200.50;10301205;28;20054;-64
2024/01/14 15:54:38;;;;;;;17.63;6.97;;;;;;;3.76;100.00;100190.22;10308198;28;20054;-64
2024/01/14 16:00:00;;;;;;;7.32;3.28;;;;;;;3.77;100.00;100158.69;10303282;28;20466;-64
2024/01/14 16:05:22;;;;;;;4.57;1.65;;;;;;;3.74;100.00;100151.03;10305099;28;20050;-66
2024/01/14 16:10:47;;;;;;;10.35;3.85;;;;;;;3.72;100.00;100145.94;10302796;28;20069;-64
2024/01/14 16:16:26;;;;;;;6.97;2.80;;;;;;;3.69;100.00;100138.31;10297857;28;20046;-65
2024/01/14 16:21:47;;;;;;;5.90;1.63;;;;;;;3.61;100.00;100124.78;10310859;28;20046;-64
2024/01/14 16:27:10;;;;;;;10.23;1.52;;;;;;;3.63;100.00;100129.84;10322277;23;20439;-64
2024/01/14 16:32:31;;;;;;;73.28;26.90;;;;;;;3.61;100.00;100118.81;10324707;28;20043;-65
2024/01/14 16:37:53;;;;;;;17.50;5.32;;;;;;;3.59;100.00;100105.22;10298178;28;20440;-65
2024/01/14 16:43:15;;;;;;;9.30;2.67;;;;;;;3.54;100.00;100086.50;10296328;28;20778;-64
2024/01/14 16:48:36;;;;;;;4.65;2.60;;;;;;;3.49;100.00;100094.25;10308465;28;20521;-64
2024/01/14 16:53:59;;;;;;;11.93;3.10;;;;;;;3.47;100.00;100084.91;10299279;28;20053;-65
2024/01/14 16:59:21;;;;;;;10.20;3.97;;;;;;;3.48;100.00;100086.63;10286436;28;20050;-65
2024/01/14 17:04:43;;;;;;;11.10;4.50;;;;;;;3.56;100.00;100072.00;10269885;28;20393;-66
2024/01/14 17:10:05;;;;;;;9.15;3.92;;;;;;;3.63;100.00;100060.81;10286285;28;20430;-65
2024/01/14 17:15:27;;;;;;;14.95;6.30;;;;;;;3.66;100.00;100056.50;10302605;28;20058;-65
2024/01/14 17:20:49;;;;;;;17.27;5.30;;;;;;;3.73;100.00;100052.16;10305872;28;20050;-66
2024/01/14 17:26:11;;;;;;;13.07;4.75;;;;;;;3.76;100.00;100045.28;10289211;28;20061;-65
2024/01/14 17:31:33;;;;;;;12.80;5.38;;;;;;;3.83;100.00;100036.63;10286402;28;20053;-65
2024/01/14 17:36:54;;;;;;;10.73;4.90;;;;;;;3.86;100.00;100028.88;10282036;28;20063;-65
2024/01/14 17:42:16;;;;;;;14.80;5.30;;;;;;;3.91;100.00;100016.03;10288630;28;21056;-65
2024/01/14 17:47:38;;;;;;;11.60;3.83;;;;;;;3.94;100.00;100016.81;10300636;28;20046;-65
2024/01/14 17:52:59;;;;;;;13.27;5.43;;;;;;;3.91;100.00;100016.03;10287850;28;20559;-65
2024/01/14 17:58:26;;;;;;;12.10;3.50;;;;;;;3.86;100.00;99999.94;10282938;28;20563;-65
2024/01/14 18:03:48;;;;;;;11.70;4.63;;;;;;;3.86;100.00;99998.19;10292784;28;20054;-66
2024/01/14 18:09:13;;;;;;;9.27;2.85;;;;;;;3.88;100.00;100000.75;10273891;28;20053;-66
2024/01/14 18:14:34;;;;;;;10.15;2.17;;;;;;;3.89;100.00;99976.84;10278656;28;20082;-66
2024/01/14 18:19:56;;;;;;;12.18;2.28;;;;;;;3.84;100.00;99970.97;10282489;28;20050;-66
2024/01/14 18:25:18;;;;;;;6.00;1.98;;;;;;;3.84;100.00;99968.41;10282176;28;21203;-65
2024/01/14 18:30:39;;;;;;;8.70;2.08;;;;;;;3.84;100.00;99963.28;10284278;28;20046;-65
2024/01/14 18:36:01;;;;;;;12.05;1.92;;;;;;;3.83;100.00;99947.09;10295963;28;20059;-65
2024/01/14 18:41:23;;;;;;;11.00;1.90;;;;;;;3.79;100.00;99934.38;10289126;28;20403;-65
2024/01/14 18:46:45;;;;;;;10.93;1.60;;;;;;;3.78;100.00;99937.78;10291953;28;20432;-65
2024/01/14 18:52:08;;;;;;;11.65;2.38;;;;;;;3.80;100.00;99936.06;10276419;28;20592;-65
2024/01/14 18:57:30;;;;;;;9.20;1.90;;;;;;;3.79;100.00;99932.66;10280939;28;20058;-66
2024/01/14 19:02:52;;;;;;;9.15;1.80;;;;;;;3.74;100.00;99916.53;10284419;28;20052;-65
2024/01/14 19:08:14;;;;;;;7.07;1.77;;;;;;;3.71;100.00;99911.50;10275953;28;20062;-65
2024/01/14 19:13:36;;;;;;;7.35;1.70;;;;;;;3.71;100.00;99902.97;10285461;28;20077;-65
2024/01/14 19:18:58;;;;;;;7.50;1.60;;;;;;;3.66;100.00;99892.81;10291004;28;20125;-66
2024/01/14 19:24:20;;;;;;;20.98;4.28;;;;;;;3.64;100.00;99903.94;10288671;28;20136;-65
2024/01/14 19:29:41;;;;;;;10.48;2.88;;;;;;;3.62;100.00;99896.31;10287617;28;20046;-65
2024/01/14 19:35:03;;;;;;;5.88;1.70;;;;;;;3.57;100.00;99898.06;10282744;28;20495;-65
2024/01/14 19:40:25;;;;;;;11.73;1.80;;;;;;;3.54;100.00;99872.56;10288611;28;20249;-65
2024/01/14 19:45:47;;;;;;;8.82;1.55;;;;;;;3.51;100.00;99877.75;10281500;28;20094;-65
2024/01/14 19:51:10;;;;;;;5.47;1.42;;;;;;;3.50;100.00;99881.16;10291245;28;20396;-65
2024/01/14 19:56:32;;;;;;;4.22;1.23;;;;;;;3.44;100.00;99875.31;10291194;28;20062;-64
2024/01/14 20:01:54;;;;;;;8.00;1.40;;;;;;;3.44;100.00;99867.66;10280255;28;20181;-65
2024/01/14 20:07:15;;;;;;;6.07;1.48;;;;;;;3.40;100.00;99871.13;10288861;28;20050;-65
2024/01/14 20:12:37;;;;;;;4.22;1.27;;;;;;;3.35;100.00;99855.00;10301329;28;20117;-65
2024/01/14 20:17:59;;;;;;;8.70;1.30;;;;;;;3.31;100.00;99849.13;10295491;28;20503;-65
2024/01/14 20:23:21;;;;;;;5.97;1.40;;;;;;;3.25;100.00;99838.13;10288398;28;20057;-65
2024/01/14 20:28:42;;;;;;;6.75;1.88;;;;;;;3.21;100.00;99851.81;10303476;28;20476;-65
2024/01/14 20:34:04;;;;;;;6.72;1.50;;;;;;;3.17;100.00;99850.22;10292163;28;20503;-65
2024/01/14 20:39:27;;;;;;;7.30;1.63;;;;;;;3.17;100.00;99845.09;10289362;28;20061;-65
2024/01/14 20:44:53;;;;;;;3.53;1.40;;;;;;;3.19;100.00;99848.47;10291770;28;20069;-65
2024/01/14 20:50:15;;;;;;;3.42;1.25;;;;;;;3.02;100.00;99843.63;10286911;28;20050;-65
2024/01/14 20:55:36;;;;;;;5.22;1.45;;;;;;;2.95;100.00;99840.31;10294637;28;20050;-65
2024/01/14 21:01:00;;;;;;;3.85;2.05;;;;;;;2.95;100.00;99834.34;10288306;28;20137;-66
2024/01/14 21:06:22;;;;;;;4.45;1.40;;;;;;;2.91;100.00;99837.84;10296273;28;20054;-66
2024/01/14 21:11:44;;;;;;;4.70;1.20;;;;;;;2.91;100.00;99822.53;10285767;28;20043;-65
2024/01/14 21:17:06;;;;;;;3.00;1.10;;;;;;;2.81;100.00;99811.59;10289015;28;20649;-65
2024/01/14 21:22:28;;;;;;;9.25;1.30;;;;;;;2.73;100.00;99802.34;10290824;28;20067;-66
2024/01/14 21:27:57;;;;;;;2.42;1.25;;;;;;;2.72;100.00;99795.56;10300971;28;20050;-66
2024/01/14 21:33:19;;;;;;;3.95;1.42;;;;;;;2.69;100.00;99795.63;10286311;28;20046;-66
2024/01/14 21:38:40;;;;;;;4.40;1.33;;;;;;;2.67;100.00;99788.00;10312864;28;20061;-65
2024/01/14 21:44:03;;;;;;;4.45;1.35;;;;;;;2.66;100.00;99775.22;10288388;28;20054;-66
2024/01/14 21:49:25;;;;;;;4.60;1.33;;;;;;;2.65;100.00;99774.41;10287756;28;20059;-65
2024/01/14 21:54:46;;;;;;;4.53;1.33;;;;;;;2.65;100.00;99778.66;10281368;28;20060;-66
2024/01/14 22:00:09;;;;;;;8.38;2.03;;;;;;;2.63;100.00;99776.13;10283839;28;20403;-66
2024/01/14 22:05:31;;;;;;;6.25;1.30;;;;;;;2.60;100.00;99776.16;10301506;28;20076;-66
2024/01/14 22:10:53;;;;;;;7.13;1.58;;;;;;;2.62;100.00;99784.63;10299973;28;20055;-65
2024/01/14 22:16:14;;;;;;;8.27;1.60;;;;;;;2.64;100.00;99782.06;10287137;28;20594;-65
2024/01/14 22:21:39;;;;;;;9.43;1.35;;;;;;;2.57;100.00;99775.34;10291869;28;20058;-66
2024/01/14 22:27:01;;;;;;;7.80;1.70;;;;;;;2.53;100.00;99769.44;10307506;28;20054;-66
2024/01/14 22:32:23;;;;;;;9.05;1.70;;;;;;;2.46;100.00;99756.81;10291414;28;20141;-66
2024/01/14 22:37:45;;;;;;;8.75;1.48;;;;;;;2.48;100.00;99750.81;10290412;28;20504;-65
2024/01/14 22:43:06;;;;;;;12.20;2.30;;;;;;;2.46;100.00;99751.69;10282480;28;20054;-65
2024/01/14 22:48:28;;;;;;;9.52;1.38;;;;;;;2.40;100.00;99744.97;10288053;28;20049;-66
2024/01/14 22:53:50;;;;;;;10.38;2.30;;;;;;;2.45;100.00;99739.81;10292334;28;20051;-66
2024/01/14 22:59:12;;;;;;;7.13;1.50;;;;;;;2.37;100.00;99731.41;10282622;28;20061;-66
2024/01/14 23:04:36;;;;;;;9.32;1.50;;;;;;;2.39;100.00;99733.09;10303076;28;20116;-66
2024/01/14 23:09:57;;;;;;;12.43;1.77;;;;;;;2.37;100.00;99716.97;10289524;28;20078;-66
2024/01/14 23:15:19;;;;;;;11.80;1.50;;;;;;;2.34;100.00;99722.13;10290833;28;20050;-66
2024/01/14 23:20:41;;;;;;;12.10;1.60;;;;;;;2.30;100.00;99720.47;10286087;28;20042;-66
2024/01/14 23:26:03;;;;;;;5.55;1.45;;;;;;;2.24;100.00;99694.19;10275262;28;20063;-66
2024/01/14 23:31:25;;;;;;;9.50;1.55;;;;;;;2.30;100.00;99715.38;10296210;28;20049;-66
2024/01/14 23:36:46;;;;;;;10.88;1.77;;;;;;;2.31;100.00;99686.41;10293643;28;20069;-66
2024/01/14 23:42:08;;;;;;;13.05;2.40;;;;;;;2.33;100.00;99689.78;10281213;28;20061;-66
2024/01/14 23:47:30;;;;;;;10.00;1.58;;;;;;;2.32;100.00;99683.03;10287285;28;20050;-65
2024/01/14 23:52:51;;;;;;;11.07;1.83;;;;;;;2.39;100.00;99678.66;10284972;28;20117;-66
2024/01/14 23:58:13;;;;;;;15.02;1.85;;;;;;;2.40;100.00;99653.09;10304672;28;20046;-66
